Time;durP1;ratioP1;P1;durP2;ratioP2;P2;SDS_P1;SDS_P2;PMS_P1;PMS_P2;Temp;Humidity;BMP_temperature;BMP_pressure;BME280_temperature;BME280_humidity;BME280_pressure;Samples;Min_cycle;Max_cycle;Signal;HPM_P1;HPM_P2
2022/09/29 00:00:20;;;;;;;8.55;1.77;;;;;;;23.45;53.94;95604.28;5015017;28;20025;-34
2022/09/29 00:02:45;;;;;;;5.45;1.50;;;;;;;23.49;53.56;95606.72;5014956;28;20025;-34
2022/09/29 00:05:11;;;;;;;6.55;1.60;;;;;;;23.40;53.96;95615.44;5014982;28;20030;-34
2022/09/29 00:07:36;;;;;;;6.32;1.42;;;;;;;23.37;54.04;95613.75;5014734;28;20053;-34
2022/09/29 00:10:03;;;;;;;8.63;1.83;;;;;;;23.38;54.25;95615.97;5014728;28;20040;-34
2022/09/29 00:12:29;;;;;;;7.65;1.70;;;;;;;23.27;54.54;95605.84;5015500;28;20328;-35
2022/09/29 00:14:54;;;;;;;8.82;2.20;;;;;;;23.29;54.51;95608.09;5014884;28;20032;-34
2022/09/29 00:17:20;;;;;;;10.98;2.08;;;;;;;23.34;54.37;95606.50;5014682;28;20470;-34
2022/09/29 00:19:45;;;;;;;8.07;1.83;;;;;;;23.35;54.35;95605.22;5014795;28;20076;-34
2022/09/29 00:22:10;;;;;;;8.20;2.05;;;;;;;23.40;54.17;95604.38;5014598;28;20470;-34
2022/09/29 00:24:36;;;;;;;10.70;2.08;;;;;;;23.23;54.55;95594.38;5014604;28;20022;-34
2022/09/29 00:27:01;;;;;;;10.18;2.42;;;;;;;23.22;54.70;95598.41;5014491;28;20104;-34
2022/09/29 00:29:28;;;;;;;7.47;2.30;;;;;;;23.27;54.74;95605.84;5014204;28;20037;-34
2022/09/29 00:31:53;;;;;;;9.25;2.22;;;;;;;23.22;54.44;95601.19;5014532;28;20022;-34
2022/09/29 00:34:19;;;;;;;7.65;1.83;;;;;;;23.35;54.26;95605.97;5014631;28;20049;-34
2022/09/29 00:36:45;;;;;;;9.77;2.22;;;;;;;23.37;54.37;95608.94;5014621;28;20477;-36
2022/09/29 00:39:11;;;;;;;10.02;1.95;;;;;;;23.25;54.35;95602.13;4974467;28;1180847;-34
2022/09/29 00:41:38;;;;;;;8.65;1.67;;;;;;;23.37;54.35;95608.22;5013810;28;20034;-34
2022/09/29 00:44:06;;;;;;;7.43;1.95;;;;;;;23.32;54.69;95609.06;5013565;28;20042;-34
2022/09/29 00:46:44;;;;;;;7.50;2.13;;;;;;;23.26;54.37;95609.88;5013972;28;20430;-35
2022/09/29 00:49:18;;;;;;;7.47;1.83;;;;;;;23.27;54.85;95608.63;5015163;28;20034;-34
2022/09/29 00:52:06;;;;;;;6.78;1.95;;;;;;;23.28;54.34;95595.53;5015210;28;20034;-35
2022/09/29 00:54:37;;;;;;;8.65;1.95;;;;;;;23.27;54.80;95600.31;5015491;28;20430;-34
2022/09/29 00:57:07;;;;;;;6.55;1.70;;;;;;;23.26;54.77;95595.31;5015005;28;20097;-35
2022/09/29 00:59:49;;;;;;;8.15;1.70;;;;;;;23.24;54.67;95601.38;5015286;28;20121;-34
2022/09/29 01:02:17;;;;;;;9.15;2.00;;;;;;;23.16;55.03;95594.25;5014924;28;20028;-34
2022/09/29 01:04:44;;;;;;;10.13;2.00;;;;;;;23.29;54.87;95594.25;5015209;28;20030;-35
2022/09/29 01:07:10;;;;;;;6.82;1.80;;;;;;;23.21;55.08;95590.63;5013897;28;20026;-34
2022/09/29 01:09:39;;;;;;;9.70;1.52;;;;;;;23.23;54.96;95580.53;5015022;28;20040;-35
2022/09/29 01:12:05;;;;;;;8.93;1.75;;;;;;;23.18;55.01;95597.97;5015668;28;20034;-35
2022/09/29 01:14:33;;;;;;;9.27;1.80;;;;;;;23.25;55.09;95577.22;5034492;28;20065;-34
2022/09/29 01:16:59;;;;;;;9.23;1.75;;;;;;;23.37;54.27;95575.03;5034329;28;20075;-35
2022/09/29 01:19:25;;;;;;;8.35;1.90;;;;;;;23.21;54.87;95568.50;5034560;28;20021;-34
2022/09/29 01:21:50;;;;;;;10.77;1.77;;;;;;;23.24;55.09;95570.22;5034368;28;20018;-34
2022/09/29 01:24:30;;;;;;;9.45;1.88;;;;;;;23.22;54.98;95567.25;5034402;28;20037;-34
2022/09/29 01:27:14;;;;;;;9.30;2.33;;;;;;;23.29;54.99;95570.09;5034107;28;20484;-34
2022/09/29 01:30:16;;;;;;;4.97;1.48;;;;;;;23.23;55.04;95569.47;5034336;28;20029;-35
2022/09/29 01:32:50;;;;;;;6.85;1.65;;;;;;;23.10;55.37;95568.72;5034307;28;20026;-35
2022/09/29 01:35:39;;;;;;;10.20;2.20;;;;;;;23.09;55.54;95562.44;5033985;28;20021;-34
2022/09/29 01:38:21;;;;;;;7.70;1.50;;;;;;;23.18;55.40;95553.72;5033971;28;20103;-34
2022/09/29 01:41:09;;;;;;;8.77;1.77;;;;;;;23.21;55.05;95552.66;5033927;28;20072;-35
2022/09/29 01:43:42;;;;;;;7.40;1.90;;;;;;;23.19;55.07;95555.22;5034028;28;20029;-35
2022/09/29 01:46:32;;;;;;;6.40;1.70;;;;;;;23.16;55.04;95556.25;5033935;28;20021;-34
2022/09/29 01:49:00;;;;;;;7.63;1.60;;;;;;;23.20;54.80;95559.47;5033379;28;20075;-34
2022/09/29 01:51:37;;;;;;;8.68;1.75;;;;;;;23.22;55.10;95556.91;5033945;28;20120;-35
2022/09/29 01:54:09;;;;;;;9.75;1.98;;;;;;;23.15;55.09;95551.25;5033984;28;20444;-34
2022/09/29 01:56:45;;;;;;;6.82;1.67;;;;;;;23.13;55.20;95571.16;5034150;28;20469;-35
2022/09/29 01:59:21;;;;;;;9.27;2.05;;;;;;;23.20;55.45;95558.72;5034065;28;20033;-34
2022/09/29 02:01:50;;;;;;;10.55;1.80;;;;;;;23.27;55.06;95556.06;5033866;28;20386;-34
2022/09/29 02:04:22;;;;;;;11.23;2.10;;;;;;;23.19;54.85;95557.97;5033759;28;20028;-34
2022/09/29 02:06:56;;;;;;;8.88;2.30;;;;;;;23.08;55.34;95552.66;5033721;28;20486;-35
2022/09/29 02:09:29;;;;;;;7.40;1.52;;;;;;;23.16;55.26;95550.72;5033597;28;20112;-34
2022/09/29 02:12:00;;;;;;;9.43;1.70;;;;;;;23.19;55.29;95554.47;5033447;28;20032;-34
2022/09/29 02:14:34;;;;;;;7.75;1.80;;;;;;;23.07;55.47;95558.72;5033699;28;20453;-34
2022/09/29 02:17:18;;;;;;;10.98;1.85;;;;;;;23.12;55.37;95555.81;5033625;28;20022;-35
2022/09/29 02:19:45;;;;;;;6.57;1.42;;;;;;;23.12;55.37;95566.88;5033453;28;20025;-35
2022/09/29 02:22:11;;;;;;;8.18;1.73;;;;;;;23.12;55.24;95555.09;5033316;28;20473;-34
2022/09/29 02:24:37;;;;;;;12.40;2.35;;;;;;;23.21;55.53;95560.97;5033376;28;20405;-34
2022/09/29 02:27:03;;;;;;;7.40;1.85;;;;;;;23.22;55.63;95558.94;5033291;28;20076;-34
2022/09/29 02:29:30;;;;;;;8.18;1.77;;;;;;;23.11;55.64;95559.91;5033241;28;20437;-34
2022/09/29 02:32:00;;;;;;;6.60;1.77;;;;;;;23.11;55.67;95559.91;5033294;28;20450;-34
2022/09/29 02:34:26;;;;;;;6.90;1.70;;;;;;;23.13;55.57;95554.56;5033571;28;20024;-34
2022/09/29 02:36:59;;;;;;;6.43;1.50;;;;;;;23.12;55.14;95552.34;5033213;28;20429;-35
2022/09/29 02:39:43;;;;;;;8.32;1.65;;;;;;;23.10;55.87;95558.41;5031934;28;20095;-34
2022/09/29 02:42:14;;;;;;;8.38;1.85;;;;;;;23.04;55.70;95552.22;5033307;28;20109;-35
2022/09/29 02:44:55;;;;;;;7.53;1.55;;;;;;;23.04;55.67;95543.91;5033315;28;20025;-34
2022/09/29 02:47:36;;;;;;;10.60;1.65;;;;;;;23.15;55.56;95548.50;5033374;28;20041;-34
2022/09/29 02:50:10;;;;;;;9.07;2.00;;;;;;;23.19;55.17;95538.63;5033181;28;20087;-35
2022/09/29 02:52:59;;;;;;;9.50;2.08;;;;;;;23.13;55.88;95528.91;5033314;28;20029;-35
2022/09/29 02:55:42;;;;;;;6.35;1.58;;;;;;;23.10;55.46;95525.22;5033259;28;20382;-34
2022/09/29 02:58:19;;;;;;;5.55;1.40;;;;;;;23.12;55.37;95511.56;5033161;28;20028;-34
2022/09/29 03:00:46;;;;;;;7.05;1.50;;;;;;;23.13;55.42;95515.84;5031836;28;20069;-34
2022/09/29 03:03:12;;;;;;;9.98;2.00;;;;;;;23.14;55.70;95522.84;5033115;28;20033;-35
2022/09/29 03:05:37;;;;;;;7.60;1.80;;;;;;;23.13;55.61;95528.91;5033000;28;20536;-35
2022/09/29 03:08:03;;;;;;;8.75;1.75;;;;;;;23.17;55.36;95532.88;5032897;28;20021;-34
2022/09/29 03:10:28;;;;;;;7.35;1.60;;;;;;;23.16;55.54;95542.44;5033229;28;20121;-35
2022/09/29 03:12:54;;;;;;;8.60;1.65;;;;;;;23.12;55.21;95555.81;5033003;28;20084;-34
2022/09/29 03:15:20;;;;;;;7.00;1.50;;;;;;;23.18;55.35;95550.19;5032958;28;20033;-36
2022/09/29 03:17:45;;;;;;;7.30;1.45;;;;;;;23.13;55.55;95551.78;5033059;28;20132;-35
2022/09/29 03:20:10;;;;;;;9.10;1.70;;;;;;;23.12;55.39;95541.28;5032965;28;20075;-34
2022/09/29 03:22:36;;;;;;;6.95;1.60;;;;;;;23.07;55.48;95553.94;5032903;28;20462;-34
2022/09/29 03:25:04;;;;;;;7.07;1.63;;;;;;;23.01;56.21;95544.22;5032864;28;20030;-34
2022/09/29 03:27:31;;;;;;;8.48;1.30;;;;;;;22.99;56.45;95530.94;5032866;28;20025;-34
2022/09/29 03:29:56;;;;;;;8.88;2.10;;;;;;;23.02;55.79;95531.88;5033733;28;20037;-34
2022/09/29 03:32:21;;;;;;;7.72;1.92;;;;;;;22.97;55.98;95527.97;5036392;28;20132;-34
2022/09/29 03:34:47;;;;;;;9.15;1.88;;;;;;;23.01;56.12;95533.16;5036512;28;20047;-35
2022/09/29 03:37:12;;;;;;;8.18;2.25;;;;;;;23.00;56.12;95534.44;5036154;28;20476;-34
2022/09/29 03:39:38;;;;;;;6.65;1.77;;;;;;;22.97;56.26;95541.03;5036569;28;20033;-34
2022/09/29 03:42:03;;;;;;;11.27;2.08;;;;;;;22.97;56.25;95555.63;5036155;28;20067;-34
2022/09/29 03:44:29;;;;;;;7.47;1.73;;;;;;;23.02;55.71;95557.53;5036642;28;20032;-35
2022/09/29 03:46:54;;;;;;;10.45;2.15;;;;;;;23.02;56.33;95552.00;5036390;28;20116;-35
2022/09/29 03:49:20;;;;;;;7.43;1.65;;;;;;;23.00;56.39;95567.63;5036741;28;20401;-35
2022/09/29 03:51:45;;;;;;;9.10;1.88;;;;;;;22.96;56.32;95567.94;5036199;28;20424;-35
2022/09/29 03:54:11;;;;;;;7.38;1.63;;;;;;;23.01;56.21;95575.38;5036002;28;20022;-34
2022/09/29 03:56:37;;;;;;;6.72;1.48;;;;;;;22.90;56.71;95572.81;5036379;28;20114;-35
2022/09/29 03:59:08;;;;;;;6.30;2.03;;;;;;;23.00;56.56;95562.09;5036026;28;20037;-34
2022/09/29 04:01:34;;;;;;;7.05;1.90;;;;;;;22.95;56.20;95563.69;5036070;28;20095;-34
2022/09/29 04:04:00;;;;;;;9.98;2.42;;;;;;;22.98;56.20;95570.19;5035997;28;20025;-35
2022/09/29 04:06:25;;;;;;;10.23;2.15;;;;;;;22.99;56.51;95569.66;5035608;28;20032;-35
2022/09/29 04:08:51;;;;;;;8.07;1.65;;;;;;;22.90;56.76;95578.34;5035770;28;20072;-35
2022/09/29 04:11:16;;;;;;;8.88;2.10;;;;;;;22.98;56.46;95557.09;5035743;28;20033;-34
2022/09/29 04:13:42;;;;;;;9.00;1.70;;;;;;;22.94;56.20;95573.25;5035852;28;20029;-37
2022/09/29 04:16:07;;;;;;;8.15;1.88;;;;;;;23.05;55.95;95561.25;5035675;28;20097;-34
2022/09/29 04:18:33;;;;;;;7.15;2.20;;;;;;;23.01;56.26;95564.31;5036008;28;20433;-34
2022/09/29 04:21:03;;;;;;;6.95;1.65;;;;;;;22.98;56.13;95556.38;5035884;28;20417;-35
2022/09/29 04:23:29;;;;;;;6.20;1.75;;;;;;;22.99;56.46;95568.91;5035513;28;20033;-34
2022/09/29 04:25:59;;;;;;;9.98;2.03;;;;;;;22.99;56.13;95569.66;5035692;28;20025;-35
2022/09/29 04:28:25;;;;;;;5.28;1.25;;;;;;;22.95;56.55;95566.47;5035779;28;20087;-35
2022/09/29 04:30:51;;;;;;;6.28;1.67;;;;;;;22.93;56.43;95574.53;5035620;28;20026;-34
2022/09/29 04:33:16;;;;;;;5.68;1.70;;;;;;;22.98;55.95;95565.41;5035262;28;20040;-35
2022/09/29 04:35:42;;;;;;;8.48;2.03;;;;;;;22.97;56.15;95569.44;5035450;28;20025;-34
2022/09/29 04:38:07;;;;;;;6.93;1.80;;;;;;;22.95;56.04;95569.22;5035076;28;20398;-34
2022/09/29 04:40:34;;;;;;;4.78;1.70;;;;;;;22.98;56.38;95579.22;5034827;28;20466;-34
2022/09/29 04:43:00;;;;;;;9.82;1.38;;;;;;;22.97;56.28;95577.75;5034306;28;20033;-34
2022/09/29 04:45:26;;;;;;;6.78;1.60;;;;;;;22.86;56.50;95570.38;5035055;28;20033;-35
2022/09/29 04:47:51;;;;;;;8.90;1.67;;;;;;;22.98;56.62;95568.16;5035089;28;20421;-34
2022/09/29 04:50:17;;;;;;;7.43;2.10;;;;;;;22.85;56.50;95579.19;5035224;28;20017;-35
2022/09/29 04:52:42;;;;;;;8.98;2.00;;;;;;;22.90;56.46;95575.59;5035066;28;20079;-36
2022/09/29 04:55:10;;;;;;;8.05;1.60;;;;;;;22.96;56.79;95579.00;5034843;28;20033;-34
2022/09/29 04:57:36;;;;;;;5.95;1.58;;;;;;;22.84;57.10;95566.66;5035192;28;20421;-34
2022/09/29 05:00:03;;;;;;;6.93;1.65;;;;;;;22.86;56.67;95561.34;5035052;28;20033;-35
2022/09/29 05:02:29;;;;;;;5.90;1.42;;;;;;;22.91;56.86;95557.72;5034768;28;20466;-35
2022/09/29 05:04:54;;;;;;;6.50;1.35;;;;;;;22.86;56.82;95555.81;5034938;28;20036;-35
2022/09/29 05:07:20;;;;;;;6.07;1.50;;;;;;;22.86;56.60;95562.09;5034926;28;20530;-34
2022/09/29 05:09:45;;;;;;;5.05;1.50;;;;;;;22.92;56.54;95556.44;5034736;28;20021;-34
2022/09/29 05:12:10;;;;;;;9.80;2.35;;;;;;;22.93;56.84;95553.16;5034584;28;20040;-35
2022/09/29 05:14:36;;;;;;;8.27;2.13;;;;;;;22.92;56.54;95556.44;5034561;28;20028;-35
2022/09/29 05:17:01;;;;;;;7.60;1.60;;;;;;;22.86;56.53;95550.28;5034459;28;20026;-34
2022/09/29 05:19:27;;;;;;;7.50;1.98;;;;;;;22.89;56.72;95532.63;5034343;28;20044;-35
2022/09/29 05:21:53;;;;;;;8.15;2.00;;;;;;;22.95;56.56;95540.81;5034741;28;20040;-34
2022/09/29 05:24:18;;;;;;;5.38;1.35;;;;;;;22.97;56.24;95557.63;5034220;28;20029;-34
2022/09/29 05:26:44;;;;;;;6.90;1.50;;;;;;;22.97;56.00;95566.69;5034229;28;20017;-34
2022/09/29 05:29:09;;;;;;;7.68;1.70;;;;;;;22.92;56.42;95571.03;5034362;28;20480;-34
2022/09/29 05:31:35;;;;;;;8.05;1.45;;;;;;;22.83;56.96;95560.38;5034330;28;20417;-34
2022/09/29 05:34:00;;;;;;;7.65;1.48;;;;;;;22.91;56.80;95563.25;5034121;28;20466;-36
2022/09/29 05:36:25;;;;;;;7.22;1.63;;;;;;;23.11;56.02;95559.91;5034206;28;20037;-34
2022/09/29 05:38:51;;;;;;;7.68;1.58;;;;;;;23.07;56.01;95559.44;5033903;28;20049;-34
2022/09/29 05:41:22;;;;;;;4.80;1.23;;;;;;;23.06;55.96;95557.22;5033995;28;20413;-35
2022/09/29 05:43:49;;;;;;;5.30;1.50;;;;;;;22.95;56.14;95563.69;5034161;28;20420;-34
2022/09/29 05:46:18;;;;;;;6.53;1.45;;;;;;;22.96;56.41;95561.66;5034087;28;20025;-35
2022/09/29 05:48:45;;;;;;;6.70;1.80;;;;;;;22.92;56.26;95570.28;5033887;28;20108;-34
2022/09/29 05:51:23;;;;;;;4.43;1.35;;;;;;;22.89;56.43;95572.06;5031645;28;20029;-34
2022/09/29 05:53:55;;;;;;;7.78;1.35;;;;;;;22.88;56.33;95578.13;5031614;28;20034;-35
2022/09/29 05:56:23;;;;;;;7.38;1.83;;;;;;;22.91;56.48;95579.84;5032179;28;20496;-35
2022/09/29 05:58:49;;;;;;;6.57;1.38;;;;;;;22.84;56.79;95580.47;5030778;28;20029;-34
2022/09/29 06:01:18;;;;;;;6.65;1.48;;;;;;;22.80;56.95;95589.06;5031812;28;20025;-34
2022/09/29 06:03:44;;;;;;;4.80;1.42;;;;;;;22.83;56.91;95601.84;5031653;28;20033;-36
2022/09/29 06:06:16;;;;;;;8.93;1.73;;;;;;;22.87;56.88;95607.78;5031997;28;20029;-35
2022/09/29 06:08:43;;;;;;;6.82;1.95;;;;;;;22.89;56.62;95607.25;5032040;28;20025;-34
2022/09/29 06:11:20;;;;;;;6.70;1.98;;;;;;;22.85;56.26;95612.38;5031988;28;20033;-34
2022/09/29 06:13:47;;;;;;;4.72;1.48;;;;;;;22.95;56.47;95607.94;5031702;28;20030;-35
2022/09/29 06:16:14;;;;;;;10.80;1.92;;;;;;;22.92;56.27;95593.13;5031540;28;20108;-35
2022/09/29 06:18:40;;;;;;;5.47;1.33;;;;;;;22.83;56.99;95590.03;5031672;28;20087;-35
2022/09/29 06:21:08;;;;;;;7.55;1.63;;;;;;;22.85;57.35;95576.44;5031618;28;20029;-34
2022/09/29 06:23:34;;;;;;;8.98;2.15;;;;;;;22.81;57.27;95598.09;5031489;28;20808;-35
2022/09/29 06:26:05;;;;;;;7.20;1.70;;;;;;;22.77;57.11;95600.44;5031447;28;20032;-34
2022/09/29 06:28:31;;;;;;;7.32;1.50;;;;;;;22.85;56.91;95609.63;5031465;28;20145;-35
2022/09/29 06:31:02;;;;;;;5.55;1.52;;;;;;;22.84;57.49;95608.13;5031679;28;20021;-34
2022/09/29 06:33:28;;;;;;;4.72;1.55;;;;;;;22.82;56.75;95616.19;5031653;28;20033;-34
2022/09/29 06:38:39;;;;;;;7.32;1.58;;;;;;;22.90;56.86;95614.28;5031198;28;20107;-35
2022/09/29 06:41:06;;;;;;;8.30;1.83;;;;;;;22.83;56.80;95612.16;5031537;28;20041;-36
2022/09/29 06:43:31;;;;;;;6.00;1.52;;;;;;;22.71;57.93;95616.34;5031302;28;20060;-34
2022/09/29 06:45:57;;;;;;;4.63;1.20;;;;;;;22.70;57.98;95617.59;5018110;28;20057;-35
2022/09/29 06:48:22;;;;;;;7.90;1.70;;;;;;;22.73;57.37;95616.56;5010263;28;20469;-35
2022/09/29 06:50:48;;;;;;;6.30;1.63;;;;;;;22.73;57.27;95617.31;5013179;28;20040;-36
2022/09/29 06:53:13;;;;;;;5.13;1.38;;;;;;;22.80;57.17;95613.19;5016581;28;20065;-35
2022/09/29 06:55:39;;;;;;;3.65;1.17;;;;;;;22.72;56.94;95615.06;5015916;28;20026;-35
2022/09/29 06:58:04;;;;;;;4.68;1.20;;;;;;;22.87;56.60;95618.84;5013640;28;20017;-34
2022/09/29 07:00:32;;;;;;;3.42;1.02;;;;;;;22.79;57.12;95611.72;5011583;28;20481;-35
2022/09/29 07:02:57;;;;;;;5.75;1.63;;;;;;;22.85;56.67;95615.13;5028862;28;20080;-34
2022/09/29 07:05:23;;;;;;;5.93;1.13;;;;;;;22.81;57.19;95617.47;5033156;28;20385;-35
2022/09/29 07:07:48;;;;;;;5.20;0.98;;;;;;;22.87;57.02;95613.31;5034945;28;20026;-35
2022/09/29 07:10:14;;;;;;;6.40;1.38;;;;;;;22.82;57.15;95608.66;5035060;28;20454;-34
2022/09/29 07:12:43;;;;;;;5.75;1.40;;;;;;;22.78;57.49;95605.44;5035205;28;20029;-35
2022/09/29 07:15:09;;;;;;;5.25;1.45;;;;;;;22.86;56.92;95611.09;5015789;28;20474;-35
2022/09/29 07:17:34;;;;;;;4.57;1.38;;;;;;;22.77;57.32;95617.00;5015491;28;20030;-34
2022/09/29 07:20:00;;;;;;;5.60;1.40;;;;;;;22.73;57.07;95624.84;5030134;28;20021;-35
2022/09/29 07:22:25;;;;;;;7.70;1.63;;;;;;;22.89;56.32;95616.31;5033592;28;20381;-35
2022/09/29 07:24:52;;;;;;;6.13;1.30;;;;;;;22.86;57.04;95613.88;5033338;28;20035;-35
2022/09/29 07:27:23;;;;;;;8.15;1.50;;;;;;;22.77;57.30;95606.69;5034792;28;20033;-35
2022/09/29 07:29:52;;;;;;;6.63;1.45;;;;;;;22.83;57.42;95610.13;5034945;28;20442;-35
2022/09/29 07:32:18;;;;;;;6.60;1.30;;;;;;;22.80;57.35;95613.94;5034658;28;20108;-35
2022/09/29 07:34:44;;;;;;;7.75;1.30;;;;;;;22.81;56.77;95603.63;5034765;28;20033;-36
2022/09/29 07:37:10;;;;;;;5.88;1.02;;;;;;;22.76;57.05;95601.69;5034425;28;20493;-35
2022/09/29 07:39:35;;;;;;;7.88;1.38;;;;;;;22.77;57.56;95597.66;5034456;28;20040;-35
2022/09/29 07:42:02;;;;;;;7.75;1.40;;;;;;;22.68;58.12;95604.31;5034593;28;20033;-35
2022/09/29 07:44:29;;;;;;;7.93;1.50;;;;;;;22.37;59.00;95599.53;5034275;28;20041;-35
2022/09/29 07:46:55;;;;;;;6.93;1.50;;;;;;;21.08;64.27;95595.47;5032480;28;20117;-31
2022/09/29 07:49:20;;;;;;;8.15;2.22;;;;;;;21.76;62.04;95592.78;5034512;28;20108;-34
2022/09/29 07:51:46;;;;;;;11.55;1.58;;;;;;;22.24;60.09;95597.44;5014532;28;20022;-34
2022/09/29 07:54:12;;;;;;;8.13;2.05;;;;;;;22.18;60.04;95605.78;5014830;28;20065;-34
2022/09/29 07:56:37;;;;;;;7.15;2.28;;;;;;;22.41;59.47;95603.47;5014468;28;20033;-34
2022/09/29 07:59:04;;;;;;;4.25;1.08;;;;;;;22.57;58.49;95601.72;5014545;28;20108;-34
2022/09/29 08:01:30;;;;;;;6.10;1.40;;;;;;;22.54;58.26;95602.78;5014620;28;20049;-34
2022/09/29 08:03:56;;;;;;;6.28;1.08;;;;;;;22.71;57.88;95610.81;5014356;28;20026;-34
2022/09/29 08:06:25;;;;;;;5.50;1.33;;;;;;;22.73;57.81;95635.91;5013913;28;20034;-34
2022/09/29 08:08:51;;;;;;;4.95;1.58;;;;;;;22.78;57.42;95621.28;5013924;28;20087;-34
2022/09/29 08:11:19;;;;;;;5.45;1.10;;;;;;;22.54;58.46;95622.84;5014867;28;20028;-34
2022/09/29 08:13:45;;;;;;;7.32;1.42;;;;;;;22.62;58.11;95613.97;5016322;28;20084;-34
2022/09/29 08:16:13;;;;;;;7.20;1.60;;;;;;;22.70;57.55;95623.13;5015694;28;20040;-34
2022/09/29 08:18:38;;;;;;;4.50;0.77;;;;;;;22.40;58.52;95637.88;5015865;28;20037;-34
2022/09/29 08:21:04;;;;;;;7.78;1.63;;;;;;;22.33;58.87;95608.09;5014555;28;20030;-34
2022/09/29 08:23:34;;;;;;;2.90;0.85;;;;;;;22.51;58.48;95618.38;5015651;28;20101;-34
2022/09/29 08:26:21;;;;;;;3.83;0.90;;;;;;;22.45;58.23;95603.16;5014375;28;20121;-34
2022/09/29 08:28:47;;;;;;;4.38;1.10;;;;;;;22.62;58.13;95608.44;5015828;28;20029;-34
2022/09/29 08:31:19;;;;;;;4.43;1.02;;;;;;;22.76;56.99;95616.25;5015643;28;20100;-34
2022/09/29 08:33:50;;;;;;;4.70;0.65;;;;;;;22.63;57.53;95609.91;5015576;28;20028;-34
2022/09/29 08:36:16;;;;;;;4.13;0.80;;;;;;;22.52;57.42;95617.09;5015427;28;20037;-34
2022/09/29 08:38:51;;;;;;;8.05;1.15;;;;;;;22.54;57.86;95584.19;5015594;28;20054;-34
2022/09/29 08:41:51;;;;;;;3.47;0.85;;;;;;;22.70;56.99;95579.66;5015638;28;20109;-34
2022/09/29 08:44:32;;;;;;;4.20;0.90;;;;;;;22.86;56.52;95569.63;5018469;28;20030;-34
2022/09/29 08:47:00;;;;;;;6.85;1.10;;;;;;;22.63;56.76;95582.28;5015057;28;20521;-34
2022/09/29 08:49:46;;;;;;;4.57;0.80;;;;;;;22.67;56.71;95600.06;5015287;28;20030;-34
2022/09/29 08:52:19;;;;;;;4.47;1.33;;;;;;;22.87;56.13;95607.78;5015228;28;20030;-34
2022/09/29 08:54:47;;;;;;;4.20;0.93;;;;;;;22.89;56.13;95607.25;5015400;28;20030;-35
2022/09/29 08:57:17;;;;;;;3.58;1.00;;;;;;;22.55;57.51;95605.00;5015207;28;20034;-34
2022/09/29 08:59:51;;;;;;;4.70;1.00;;;;;;;22.61;56.90;95618.75;5015280;28;20038;-34
2022/09/29 09:02:25;;;;;;;4.95;1.17;;;;;;;22.64;56.58;95623.22;5015250;28;20025;-34
2022/09/29 09:05:06;;;;;;;3.08;0.90;;;;;;;22.71;56.65;95610.81;5013791;28;20416;-34
2022/09/29 09:07:54;;;;;;;3.70;1.33;;;;;;;22.70;56.82;95637.69;5015214;28;20079;-34
2022/09/29 09:10:35;;;;;;;3.30;1.10;;;;;;;22.77;56.21;95628.81;5014907;28;20088;-34
2022/09/29 09:13:19;;;;;;;4.35;1.20;;;;;;;22.68;56.77;95640.25;5015149;28;20483;-34
2022/09/29 09:15:44;;;;;;;3.00;1.08;;;;;;;22.85;56.04;95609.63;5014991;28;20030;-34
2022/09/29 09:18:25;;;;;;;4.38;1.10;;;;;;;22.78;56.54;95616.50;5015071;28;20018;-34
2022/09/29 09:21:17;;;;;;;3.33;0.90;;;;;;;22.85;56.09;95615.13;5014665;28;20076;-34
2022/09/29 09:24:08;;;;;;;4.18;1.27;;;;;;;22.80;56.49;95619.47;5014678;28;20053;-34
2022/09/29 09:26:40;;;;;;;3.63;0.93;;;;;;;22.88;56.06;95612.03;5014871;28;20029;-34
2022/09/29 09:29:36;;;;;;;4.93;1.05;;;;;;;22.83;55.62;95617.69;5014009;28;20045;-34
2022/09/29 09:32:08;;;;;;;5.15;1.30;;;;;;;22.78;56.01;95632.31;5014495;28;20061;-34
2022/09/29 09:34:45;;;;;;;3.47;0.90;;;;;;;22.74;56.10;95627.09;5014709;28;20018;-34
2022/09/29 09:37:20;;;;;;;4.75;0.98;;;;;;;22.77;56.08;95628.06;5014105;28;20018;-34
2022/09/29 09:40:05;;;;;;;4.78;0.75;;;;;;;22.73;56.03;95619.31;5014885;28;20029;-34
2022/09/29 09:42:34;;;;;;;2.85;0.75;;;;;;;22.84;55.96;95621.94;5014415;28;20029;-34
2022/09/29 09:45:05;;;;;;;5.75;1.42;;;;;;;22.71;56.48;95630.16;5014631;28;20021;-34
2022/09/29 09:47:37;;;;;;;4.93;1.27;;;;;;;22.38;57.44;95625.84;5014270;28;20021;-34
2022/09/29 09:50:15;;;;;;;2.60;0.80;;;;;;;22.42;57.31;95634.59;5014336;28;20033;-34
2022/09/29 09:52:50;;;;;;;3.75;0.90;;;;;;;22.62;56.73;95617.47;5014437;28;20065;-34
2022/09/29 09:55:24;;;;;;;2.17;0.85;;;;;;;22.60;56.57;95613.75;5013974;28;20025;-34
2022/09/29 09:58:18;;;;;;;4.53;0.90;;;;;;;22.78;56.01;95605.44;5014010;28;20022;-34
2022/09/29 10:00:50;;;;;;;2.70;0.70;;;;;;;22.75;55.85;95605.72;5013563;28;20053;-34
2022/09/29 10:03:16;;;;;;;3.00;0.90;;;;;;;22.68;55.92;95607.06;5013587;28;20022;-34
2022/09/29 10:05:47;;;;;;;2.40;0.60;;;;;;;22.65;56.09;95607.38;5013287;28;20258;-34
2022/09/29 10:08:38;;;;;;;5.47;1.10;;;;;;;22.88;55.49;95608.53;5013496;28;20091;-34
2022/09/29 10:11:30;;;;;;;3.55;0.60;;;;;;;22.86;55.18;95620.16;5012233;28;20426;-34
2022/09/29 10:14:24;;;;;;;2.47;0.85;;;;;;;22.61;55.72;95593.13;5012092;28;20029;-34
2022/09/29 10:16:57;;;;;;;4.28;0.65;;;;;;;22.63;55.94;95593.34;5014229;28;20109;-34
2022/09/29 10:19:57;;;;;;;3.63;0.80;;;;;;;22.45;56.13;95594.88;5013865;28;20037;-34
2022/09/29 10:22:25;;;;;;;4.63;1.00;;;;;;;22.70;55.67;95615.59;5013762;28;20034;-34
2022/09/29 10:24:56;;;;;;;2.25;0.60;;;;;;;22.11;56.36;95600.88;5013729;28;20104;-34
2022/09/29 10:27:27;;;;;;;2.35;0.77;;;;;;;22.57;55.92;95590.66;5013647;28;20391;-34
2022/09/29 10:29:55;;;;;;;4.38;0.95;;;;;;;22.73;54.72;95605.50;5013570;28;20033;-34
2022/09/29 10:32:36;;;;;;;5.60;0.82;;;;;;;22.71;54.75;95594.22;5013535;28;20381;-35
2022/09/29 10:35:04;;;;;;;1.98;0.75;;;;;;;22.66;54.69;95598.56;5013735;28;20022;-34
2022/09/29 10:37:34;;;;;;;2.05;0.60;;;;;;;22.42;55.52;95584.88;5013559;28;20042;-34
2022/09/29 10:40:17;;;;;;;2.20;0.65;;;;;;;22.40;55.30;95598.44;5016689;28;20030;-34
2022/09/29 10:42:48;;;;;;;1.85;0.77;;;;;;;22.47;54.88;95600.63;5017922;28;20056;-34
2022/09/29 10:45:21;;;;;;;2.40;0.70;;;;;;;22.47;55.29;95592.34;5017800;28;20037;-34
2022/09/29 10:47:47;;;;;;;;;;;;;;;22.62;54.39;95595.38;5018079;28;20026;-34
2022/09/29 10:50:21;;;;;;;1.27;0.75;;;;;;;22.66;54.24;95593.03;5017747;28;19975;-34
2022/09/29 10:52:50;;;;;;;2.55;0.60;;;;;;;22.57;54.11;95596.94;5017530;28;20021;-35
2022/09/29 10:55:20;;;;;;;2.25;0.60;;;;;;;22.72;53.79;95587.44;5017341;28;20028;-34
2022/09/29 10:57:47;;;;;;;2.80;0.98;;;;;;;22.80;53.47;95591.09;5017696;28;20045;-34
2022/09/29 11:00:25;;;;;;;1.65;1.08;;;;;;;22.61;53.98;95585.59;5017547;28;20026;-34
2022/09/29 11:02:54;;;;;;;2.35;0.60;;;;;;;22.68;53.90;95595.28;5017532;28;20467;-34
2022/09/29 11:05:23;;;;;;;1.67;0.75;;;;;;;22.37;53.66;95589.22;5017215;28;20053;-34
2022/09/29 11:07:51;;;;;;;2.03;0.60;;;;;;;22.52;53.62;95611.59;5017169;28;20052;-34
2022/09/29 11:10:31;;;;;;;1.48;0.60;;;;;;;22.49;53.41;95618.19;5017123;28;20026;-34
2022/09/29 11:12:58;;;;;;;2.08;0.55;;;;;;;22.33;53.88;95596.31;5017087;28;20025;-34
2022/09/29 11:15:28;;;;;;;1.00;0.60;;;;;;;22.58;53.51;95615.03;5017228;28;20057;-34
2022/09/29 11:17:54;;;;;;;3.58;0.90;;;;;;;22.24;53.92;95622.31;5017168;28;20045;-34
2022/09/29 11:20:24;;;;;;;1.83;0.50;;;;;;;22.34;54.02;95608.84;5017014;28;20030;-34
2022/09/29 11:22:55;;;;;;;1.20;0.60;;;;;;;22.06;54.81;95612.75;5016922;28;20022;-34
2022/09/29 11:25:46;;;;;;;1.27;0.70;;;;;;;21.90;54.35;95616.41;5016899;28;20026;-34
2022/09/29 11:28:44;;;;;;;2.22;0.50;;;;;;;22.18;54.36;95586.47;5016788;28;20026;-34
2022/09/29 11:31:22;;;;;;;5.05;1.00;;;;;;;21.98;54.43;95591.75;5016483;28;20041;-34
2022/09/29 11:33:53;;;;;;;2.38;0.57;;;;;;;22.23;53.79;95582.13;5017075;28;20030;-34
2022/09/29 11:36:37;;;;;;;2.50;0.57;;;;;;;22.41;53.26;95577.84;5016868;28;20033;-34
2022/09/29 11:39:20;;;;;;;2.78;0.50;;;;;;;22.50;53.03;95575.44;5016579;28;20130;-35
2022/09/29 11:41:48;;;;;;;2.97;0.53;;;;;;;22.62;53.08;95580.81;5016742;28;20041;-34
2022/09/29 11:44:44;;;;;;;2.25;0.70;;;;;;;22.56;53.15;95573.34;5016516;28;20263;-35
2022/09/29 11:47:31;;;;;;;1.02;0.40;;;;;;;22.62;52.71;95575.28;5016451;28;20029;-34
2022/09/29 11:50:12;;;;;;;1.83;0.60;;;;;;;22.69;52.58;95574.66;5016249;28;20384;-34
2022/09/29 11:52:47;;;;;;;2.00;0.60;;;;;;;22.67;52.55;95566.16;5016413;28;20033;-34